createdAt,value
2023-04-02T00:02:20.311Z,91.81
2023-04-02T00:05:16.042Z,93.29
2023-04-02T00:07:48.196Z,93.86
2023-04-02T00:10:38.528Z,93.82
2023-04-02T00:13:11.406Z,94.18
2023-04-02T00:15:40.623Z,93.98
2023-04-02T00:18:13.753Z,93.80
2023-04-02T00:20:46.341Z,93.70
2023-04-02T00:23:13.712Z,93.55
2023-04-02T00:25:44.801Z,93.51
2023-04-02T00:28:18.300Z,93.35
2023-04-02T00:31:05.626Z,93.20
2023-04-02T00:33:32.803Z,93.12
2023-04-02T00:35:59.755Z,92.98
2023-04-02T00:38:28.018Z,92.94
2023-04-02T00:40:58.006Z,92.96
2023-04-02T00:43:27.623Z,93.02
2023-04-02T00:45:57.487Z,92.97
2023-04-02T00:48:33.083Z,92.89
2023-04-02T00:51:24.252Z,92.90
2023-04-02T00:53:54.672Z,92.76
2023-04-02T00:56:28.283Z,92.76
2023-04-02T00:58:57.110Z,92.94
2023-04-02T01:01:29.024Z,92.92
2023-04-02T01:03:59.719Z,92.88
2023-04-02T01:06:37.986Z,92.74
2023-04-02T01:09:23.689Z,92.81
2023-04-02T01:12:14.986Z,92.67
2023-04-02T01:15:01.663Z,92.66
2023-04-02T01:17:48.266Z,92.56
2023-04-02T01:20:33.278Z,92.60
2023-04-02T01:23:07.411Z,92.64
2023-04-02T01:25:47.942Z,92.57
2023-04-02T01:28:36.984Z,92.43
2023-04-02T01:31:04.464Z,92.38
2023-04-02T01:33:34.729Z,92.47
2023-04-02T01:36:09.819Z,92.65
2023-04-02T01:38:50.296Z,92.73
2023-04-02T01:41:47.287Z,92.50
2023-04-02T01:44:29.178Z,92.39
2023-04-02T01:47:00.145Z,92.20
2023-04-02T01:49:28.127Z,92.21
2023-04-02T01:51:58.298Z,92.25
2023-04-02T01:54:29.648Z,92.25
2023-04-02T01:56:56.886Z,92.29
2023-04-02T01:59:24.145Z,92.50
2023-04-02T02:02:05.977Z,92.75
2023-04-02T02:04:34.863Z,92.66
2023-04-02T02:07:02.215Z,92.72
2023-04-02T02:09:37.555Z,92.85
2023-04-02T02:12:05.028Z,93.15
2023-04-02T02:14:32.709Z,93.06
2023-04-02T02:17:03.586Z,92.94
2023-04-02T02:19:49.064Z,92.93
2023-04-02T02:22:18.707Z,92.81
2023-04-02T02:24:46.113Z,92.51
2023-04-02T02:27:22.189Z,92.32
2023-04-02T02:29:53.890Z,92.14
2023-04-02T02:32:26.841Z,92.25
2023-04-02T02:34:59.614Z,92.26
2023-04-02T02:37:31.587Z,92.08
2023-04-02T02:40:04.078Z,91.93
2023-04-02T02:42:38.057Z,91.84
2023-04-02T02:45:12.513Z,91.83
2023-04-02T02:47:43.554Z,91.86
2023-04-02T02:50:21.731Z,91.67
2023-04-02T02:52:58.581Z,91.49
2023-04-02T02:55:37.351Z,91.66
2023-04-02T02:58:25.940Z,91.60
2023-04-02T03:00:59.197Z,91.86
2023-04-02T03:03:29.656Z,91.82
2023-04-02T03:06:06.051Z,91.97
2023-04-02T03:08:41.710Z,92.27
2023-04-02T03:11:24.020Z,92.35
2023-04-02T03:13:56.820Z,92.22
2023-04-02T03:16:36.261Z,92.13
2023-04-02T03:19:36.591Z,92.13
2023-04-02T03:22:31.454Z,92.21
2023-04-02T03:25:39.982Z,92.07
2023-04-02T03:28:13.637Z,92.04
2023-04-02T03:31:19.377Z,92.13
2023-04-02T03:33:59.095Z,92.19
2023-04-02T03:36:37.972Z,92.18
2023-04-02T03:39:43.035Z,92.47
2023-04-02T03:42:15.257Z,93.19
2023-04-02T03:45:05.093Z,93.04
2023-04-02T03:48:09.649Z,93.22
2023-04-02T03:51:00.135Z,93.29
2023-04-02T03:53:28.961Z,93.37
2023-04-02T03:55:57.273Z,93.16
2023-04-02T03:58:38.123Z,92.95
2023-04-02T04:01:19.928Z,92.69
2023-04-02T04:03:52.173Z,92.46
2023-04-02T04:06:30.154Z,92.28
2023-04-02T04:09:16.096Z,92.19
2023-04-02T04:11:50.961Z,92.07
2023-04-02T04:14:26.853Z,92.00
2023-04-02T04:17:37.888Z,92.13
2023-04-02T04:20:21.449Z,91.90
2023-04-02T04:22:55.205Z,91.80
2023-04-02T04:25:29.952Z,91.77
2023-04-02T04:28:09.948Z,91.76
2023-04-02T04:31:03.468Z,91.82
2023-04-02T04:33:40.078Z,91.95
2023-04-02T04:36:53.164Z,92.69
2023-04-02T04:39:36.065Z,92.56
2023-04-02T04:42:05.977Z,92.32
2023-04-02T04:44:42.196Z,92.19
2023-04-02T04:47:41.853Z,92.04
2023-04-02T04:50:20.706Z,91.86
2023-04-02T04:52:47.412Z,91.69
2023-04-02T04:55:37.668Z,91.63
2023-04-02T04:58:29.588Z,91.46
2023-04-02T05:01:27.011Z,91.30
2023-04-02T05:03:59.030Z,91.12
2023-04-02T05:06:45.034Z,91.12
2023-04-02T05:09:27.170Z,90.93
2023-04-02T05:12:01.029Z,90.80
2023-04-02T05:14:36.111Z,90.62
2023-04-02T05:17:27.652Z,90.56
2023-04-02T05:20:15.707Z,90.49
2023-04-02T05:23:18.704Z,90.39
2023-04-02T05:25:54.817Z,90.16
2023-04-02T05:28:32.593Z,90.01
2023-04-02T05:31:07.801Z,89.87
2023-04-02T05:33:36.676Z,89.74
2023-04-02T05:36:12.220Z,88.79
2023-04-02T05:38:47.900Z,88.44
2023-04-02T05:41:45.336Z,88.28
2023-04-02T05:44:27.715Z,88.41
2023-04-02T05:47:11.992Z,87.86
2023-04-02T05:49:38.825Z,87.17
2023-04-02T05:52:16.316Z,86.95
2023-04-02T05:54:56.236Z,86.29
2023-04-02T05:57:44.647Z,85.44
2023-04-02T06:00:47.374Z,84.94
2023-04-02T06:03:34.284Z,84.07
2023-04-02T06:06:14.575Z,84.24
2023-04-02T06:08:50.394Z,84.67
2023-04-02T06:11:23.739Z,83.46
2023-04-02T06:13:51.381Z,83.10
2023-04-02T06:16:24.196Z,83.25
2023-04-02T06:18:51.083Z,83.36
2023-04-02T06:21:21.517Z,83.04
2023-04-02T06:24:02.877Z,83.00
2023-04-02T06:26:34.894Z,82.77
2023-04-02T06:29:14.150Z,82.73
2023-04-02T06:31:51.880Z,81.50
2023-04-02T06:34:24.290Z,81.74
2023-04-02T06:37:03.381Z,80.45
2023-04-02T06:39:31.438Z,80.74
2023-04-02T06:42:06.948Z,81.18
2023-04-02T06:45:04.874Z,80.03
2023-04-02T06:47:50.013Z,78.69
2023-04-02T06:50:52.588Z,77.65
2023-04-02T06:53:26.095Z,78.10
2023-04-02T06:56:06.462Z,77.81
2023-04-02T06:58:34.924Z,76.88
2023-04-02T07:01:02.229Z,75.30
2023-04-02T07:03:34.543Z,76.06
2023-04-02T07:06:16.054Z,75.36
2023-04-02T07:08:43.701Z,73.07
2023-04-02T07:11:21.102Z,74.18
2023-04-02T07:13:50.641Z,72.70
2023-04-02T07:16:24.705Z,71.77
2023-04-02T07:18:54.793Z,72.14
2023-04-02T07:21:22.392Z,71.08
2023-04-02T07:23:49.207Z,71.14
2023-04-02T07:26:19.325Z,70.68
2023-04-02T07:28:46.070Z,70.98
2023-04-02T07:31:16.137Z,70.33
2023-04-02T07:33:44.475Z,69.45
2023-04-02T07:36:17.912Z,69.43
2023-04-02T07:38:44.854Z,68.47
2023-04-02T07:41:12.700Z,67.79
2023-04-02T07:43:40.317Z,67.41
2023-04-02T07:46:08.017Z,66.66
2023-04-02T07:48:34.917Z,66.29
2023-04-02T07:51:02.746Z,65.44
2023-04-02T07:53:35.220Z,65.71
2023-04-02T07:56:04.385Z,64.93
2023-04-02T07:58:32.532Z,63.72
2023-04-02T08:01:01.123Z,63.32
2023-04-02T08:03:29.069Z,63.17
2023-04-02T08:05:58.180Z,61.73
2023-04-02T08:08:25.736Z,60.86
2023-04-02T08:10:52.622Z,60.28
2023-04-02T08:13:19.344Z,60.54
2023-04-02T08:15:46.483Z,61.08
2023-04-02T08:18:13.328Z,61.36
2023-04-02T08:20:40.118Z,60.31
2023-04-02T08:23:14.867Z,59.88
2023-04-02T08:25:41.894Z,59.66
2023-04-02T08:28:09.188Z,59.90
2023-04-02T08:30:35.984Z,60.04
2023-04-02T08:33:03.414Z,60.20
2023-04-02T08:35:30.720Z,60.26
2023-04-02T08:37:57.730Z,60.79
2023-04-02T08:40:32.213Z,60.27
2023-04-02T08:43:20.336Z,59.35
2023-04-02T08:46:06.693Z,59.34
2023-04-02T08:48:37.185Z,59.28
2023-04-02T08:51:07.608Z,58.74
2023-04-02T08:53:39.325Z,57.67
2023-04-02T08:56:26.827Z,57.26
2023-04-02T08:58:55.949Z,58.09
2023-04-02T09:01:36.502Z,58.09
2023-04-02T09:04:13.320Z,57.50
2023-04-02T09:06:41.251Z,57.62
2023-04-02T09:09:09.250Z,56.95
2023-04-02T09:11:41.963Z,57.10
2023-04-02T09:14:24.351Z,57.11
2023-04-02T09:16:55.160Z,56.88
2023-04-02T09:19:35.184Z,57.55
2023-04-02T09:22:02.724Z,57.10
2023-04-02T09:24:29.734Z,57.09
2023-04-02T09:26:56.584Z,56.43
2023-04-02T09:29:44.545Z,55.40
2023-04-02T09:32:42.478Z,55.06
2023-04-02T09:35:26.266Z,54.97
2023-04-02T09:38:31.259Z,54.94
2023-04-02T09:41:04.298Z,54.54
2023-04-02T09:43:37.053Z,54.26
2023-04-02T09:46:13.307Z,54.31
2023-04-02T09:48:45.084Z,54.04
2023-04-02T09:51:23.986Z,53.67
2023-04-02T09:54:03.320Z,53.44
2023-04-02T09:56:32.480Z,53.50
2023-04-02T09:59:06.697Z,54.05
2023-04-02T10:01:44.636Z,53.51
2023-04-02T10:04:43.528Z,53.02
2023-04-02T10:07:35.822Z,52.97
2023-04-02T10:10:31.893Z,52.49
2023-04-02T10:13:27.243Z,52.17
2023-04-02T10:16:05.350Z,52.37
2023-04-02T10:18:44.800Z,52.74
2023-04-02T10:21:16.695Z,51.84
2023-04-02T10:23:43.818Z,52.23
2023-04-02T10:26:20.240Z,52.83
2023-04-02T10:28:50.238Z,53.29
2023-04-02T10:31:29.300Z,52.97
2023-04-02T10:34:02.694Z,52.73
2023-04-02T10:36:50.053Z,52.43
2023-04-02T10:39:25.044Z,53.29
2023-04-02T10:42:10.151Z,53.15
2023-04-02T10:45:03.434Z,53.29
2023-04-02T10:47:44.197Z,52.65
2023-04-02T10:50:45.091Z,53.02
2023-04-02T10:53:20.718Z,52.43
2023-04-02T10:55:54.838Z,52.68
2023-04-02T10:58:27.638Z,52.87
2023-04-02T11:01:06.355Z,53.45
2023-04-02T11:03:42.850Z,53.57
2023-04-02T11:06:20.741Z,53.27
2023-04-02T11:08:50.728Z,52.90
2023-04-02T11:11:26.902Z,52.96
2023-04-02T11:14:08.819Z,52.97
2023-04-02T11:16:39.343Z,52.75
2023-04-02T11:19:18.190Z,52.23
2023-04-02T11:22:24.080Z,51.83
2023-04-02T11:24:56.862Z,51.12
2023-04-02T11:27:30.150Z,50.29
2023-04-02T11:30:25.004Z,50.19
2023-04-02T11:32:52.015Z,49.62
2023-04-02T11:35:31.122Z,47.42
2023-04-02T11:38:05.794Z,47.01
2023-04-02T11:40:51.171Z,46.57
2023-04-02T11:43:33.258Z,46.22
2023-04-02T11:46:01.719Z,46.36
2023-04-02T11:48:33.333Z,45.44
2023-04-02T11:51:04.193Z,45.86
2023-04-02T11:53:35.138Z,45.61
2023-04-02T11:56:20.674Z,45.02
2023-04-02T11:59:20.019Z,45.25
2023-04-02T12:02:15.458Z,45.59
2023-04-02T12:04:51.379Z,45.65
2023-04-02T12:07:27.351Z,45.72
2023-04-02T12:09:57.314Z,44.46
2023-04-02T12:12:24.018Z,44.54
2023-04-02T12:14:54.203Z,45.15
2023-04-02T12:17:26.457Z,46.14
2023-04-02T12:19:56.837Z,46.13
2023-04-02T12:22:33.921Z,46.28
2023-04-02T12:25:26.018Z,46.41
2023-04-02T12:28:10.837Z,45.58
2023-04-02T12:30:38.625Z,46.39
2023-04-02T12:33:24.449Z,47.16
2023-04-02T12:35:57.399Z,47.94
2023-04-02T12:38:28.706Z,46.62
2023-04-02T12:40:57.338Z,46.80
2023-04-02T12:43:33.024Z,46.90
2023-04-02T12:46:03.568Z,46.78
2023-04-02T12:48:31.400Z,46.62
2023-04-02T12:50:59.683Z,46.94
2023-04-02T12:53:34.535Z,46.32
2023-04-02T12:56:02.267Z,46.80
2023-04-02T12:58:56.447Z,46.77
2023-04-02T13:01:29.356Z,47.22
2023-04-02T13:04:02.616Z,47.28
2023-04-02T13:06:32.957Z,46.88
2023-04-02T13:09:01.904Z,47.37
2023-04-02T13:11:40.472Z,47.46
2023-04-02T13:14:19.635Z,47.98
2023-04-02T13:16:47.197Z,47.69
2023-04-02T13:19:16.896Z,48.23
2023-04-02T13:21:45.378Z,48.47
2023-04-02T13:24:17.462Z,47.82
2023-04-02T13:26:47.342Z,47.64
2023-04-02T13:29:24.215Z,47.72
2023-04-02T13:31:53.541Z,48.42
2023-04-02T13:34:21.240Z,48.88
2023-04-02T13:36:48.675Z,48.86
2023-04-02T13:39:15.729Z,48.88
2023-04-02T13:41:55.199Z,49.02
2023-04-02T13:44:27.886Z,49.33
2023-04-02T13:46:56.233Z,49.39
2023-04-02T13:49:24.642Z,49.41
2023-04-02T13:51:58.175Z,49.41
2023-04-02T13:54:45.358Z,49.16
2023-04-02T13:57:12.416Z,49.23
2023-04-02T13:59:39.592Z,48.93
2023-04-02T14:02:33.049Z,48.51
2023-04-02T14:05:00.283Z,49.01
2023-04-02T14:07:50.979Z,49.33
2023-04-02T14:10:22.367Z,49.49
2023-04-02T14:12:52.342Z,49.76
2023-04-02T14:15:30.628Z,49.83
2023-04-02T14:18:07.755Z,49.69
2023-04-02T14:20:48.769Z,49.56
2023-04-02T14:23:17.157Z,49.58
2023-04-02T14:25:53.172Z,50.32
2023-04-02T14:29:02.418Z,49.86
2023-04-02T14:31:42.849Z,49.93
2023-04-02T14:34:35.600Z,48.84
2023-04-02T14:37:21.387Z,48.24
2023-04-02T14:40:03.557Z,48.24
2023-04-02T14:42:36.451Z,48.59
2023-04-02T14:45:33.888Z,48.01
2023-04-02T14:48:06.566Z,47.64
2023-04-02T14:50:39.548Z,47.54
2023-04-02T14:53:23.563Z,47.35
2023-04-02T14:55:52.370Z,47.29
2023-04-02T14:58:28.348Z,46.94
2023-04-02T15:01:06.017Z,47.35
2023-04-02T15:03:42.697Z,47.89
2023-04-02T15:06:23.343Z,47.83
2023-04-02T15:09:32.987Z,48.13
2023-04-02T15:12:08.509Z,47.57
2023-04-02T15:14:46.081Z,47.48
2023-04-02T15:17:13.137Z,47.65
2023-04-02T15:19:39.926Z,47.44
2023-04-02T15:22:19.302Z,47.11
2023-04-02T15:25:04.317Z,46.75
2023-04-02T15:27:40.135Z,47.30
2023-04-02T15:30:38.733Z,47.30
2023-04-02T15:33:27.738Z,47.02
2023-04-02T15:36:03.448Z,47.10
2023-04-02T15:38:52.857Z,47.12
2023-04-02T15:41:25.651Z,47.44
2023-04-02T15:44:01.659Z,47.26
2023-04-02T15:46:50.419Z,47.27
2023-04-02T15:49:42.943Z,47.65
2023-04-02T15:52:10.146Z,48.05
2023-04-02T15:54:39.456Z,48.22
2023-04-02T15:57:20.474Z,48.46
2023-04-02T16:00:19.672Z,48.51
2023-04-02T16:03:18.019Z,48.53
2023-04-02T16:06:06.270Z,48.92
2023-04-02T16:08:38.983Z,49.14
2023-04-02T16:11:13.569Z,49.59
2023-04-02T16:13:42.653Z,49.53
2023-04-02T16:16:33.373Z,49.90
2023-04-02T16:19:25.412Z,50.24
2023-04-02T16:22:06.392Z,50.67
2023-04-02T16:24:33.492Z,50.93
2023-04-02T16:27:28.277Z,51.09
2023-04-02T16:30:04.605Z,51.56
2023-04-02T16:33:13.166Z,51.74
2023-04-02T16:36:07.383Z,52.28
2023-04-02T16:38:43.235Z,52.68
2023-04-02T16:41:12.844Z,53.07
2023-04-02T16:44:01.148Z,53.26
2023-04-02T16:46:40.624Z,53.81
2023-04-02T16:49:36.165Z,54.42
2023-04-02T16:52:29.288Z,55.44
2023-04-02T16:55:03.729Z,56.15
2023-04-02T16:57:57.091Z,56.60
2023-04-02T17:00:33.236Z,58.05
2023-04-02T17:03:38.291Z,59.35
2023-04-02T17:06:09.005Z,61.18
2023-04-02T17:08:53.576Z,61.78
2023-04-02T17:11:25.420Z,61.87
2023-04-02T17:14:05.524Z,62.19
2023-04-02T17:16:41.180Z,62.26
2023-04-02T17:19:14.962Z,62.75
2023-04-02T17:21:46.439Z,62.89
2023-04-02T17:24:13.822Z,62.71
2023-04-02T17:26:43.005Z,62.81
2023-04-02T17:29:18.700Z,63.47
2023-04-02T17:31:46.245Z,64.63
2023-04-02T17:34:16.723Z,66.46
2023-04-02T17:37:05.723Z,67.05
2023-04-02T17:39:35.753Z,67.77
2023-04-02T17:42:08.774Z,68.31
2023-04-02T17:44:41.978Z,69.31
2023-04-02T17:47:46.520Z,69.97
2023-04-02T17:50:19.462Z,70.07
2023-04-02T17:53:20.981Z,70.04
2023-04-02T17:55:53.805Z,70.48
2023-04-02T17:58:48.620Z,71.30
2023-04-02T18:01:20.506Z,71.34
2023-04-02T18:04:35.144Z,71.70
2023-04-02T18:07:19.739Z,69.21
2023-04-02T18:09:57.368Z,67.86
2023-04-02T18:12:39.411Z,67.81
2023-04-02T18:15:09.214Z,68.28
2023-04-02T18:17:54.680Z,68.68
2023-04-02T18:20:21.616Z,69.02
2023-04-02T18:22:53.984Z,69.73
2023-04-02T18:25:27.640Z,70.13
2023-04-02T18:28:22.293Z,70.76
2023-04-02T18:30:55.264Z,72.56
2023-04-02T18:33:31.152Z,72.58
2023-04-02T18:36:10.752Z,73.60
2023-04-02T18:38:53.442Z,73.78
2023-04-02T18:41:39.102Z,73.82
2023-04-02T18:44:07.033Z,74.83
2023-04-02T18:46:48.993Z,76.48
2023-04-02T18:49:18.904Z,77.78
2023-04-02T18:51:51.908Z,77.22
2023-04-02T18:54:31.502Z,77.88
2023-04-02T18:57:00.990Z,78.19
2023-04-02T18:59:48.704Z,77.87
2023-04-02T19:02:21.337Z,78.66
2023-04-02T19:04:57.544Z,79.20
2023-04-02T19:07:29.228Z,79.88
2023-04-02T19:10:05.764Z,80.72
2023-04-02T19:12:33.285Z,80.38
2023-04-02T19:15:00.592Z,80.76
2023-04-02T19:17:41.500Z,80.57
2023-04-02T19:20:49.863Z,80.38
2023-04-02T19:23:40.423Z,80.15
2023-04-02T19:26:22.337Z,80.49
2023-04-02T19:28:59.807Z,80.31
2023-04-02T19:32:03.258Z,80.46
2023-04-02T19:34:32.852Z,80.96
2023-04-02T19:37:10.569Z,80.56
2023-04-02T19:39:57.817Z,80.28
2023-04-02T19:42:24.662Z,80.34
2023-04-02T19:44:53.883Z,80.26
2023-04-02T19:47:21.958Z,80.05
2023-04-02T19:49:48.821Z,80.04
2023-04-02T19:52:16.616Z,80.21
2023-04-02T19:54:43.379Z,80.71
2023-04-02T19:57:14.996Z,80.95
2023-04-02T19:59:41.861Z,80.67
2023-04-02T20:02:10.518Z,80.39
2023-04-02T20:04:37.518Z,79.22
2023-04-02T20:07:04.371Z,78.58
2023-04-02T20:09:31.284Z,78.34
2023-04-02T20:11:58.065Z,78.30
2023-04-02T20:14:25.162Z,78.21
2023-04-02T20:16:52.051Z,78.43
2023-04-02T20:19:18.903Z,78.63
2023-04-02T20:21:45.685Z,78.60
2023-04-02T20:24:12.450Z,78.46
2023-04-02T20:26:39.175Z,78.57
2023-04-02T20:29:06.148Z,78.53
2023-04-02T20:31:33.834Z,78.69
2023-04-02T20:34:02.391Z,79.31
2023-04-02T20:36:29.541Z,80.39
2023-04-02T20:38:56.917Z,80.41
2023-04-02T20:41:24.042Z,81.12
2023-04-02T20:43:50.900Z,81.96
2023-04-02T20:46:17.743Z,81.93
2023-04-02T20:48:46.152Z,81.86
2023-04-02T20:51:14.735Z,81.93
2023-04-02T20:53:41.928Z,82.36
2023-04-02T20:56:15.015Z,82.76
2023-04-02T20:58:43.181Z,82.64
2023-04-02T21:01:28.907Z,82.78
2023-04-02T21:04:00.903Z,83.13
2023-04-02T21:06:30.937Z,83.14
2023-04-02T21:08:58.335Z,83.88
2023-04-02T21:11:25.542Z,84.13
2023-04-02T21:13:52.962Z,83.91
2023-04-02T21:16:22.503Z,83.72
2023-04-02T21:18:52.190Z,83.82
2023-04-02T21:21:19.957Z,84.24
2023-04-02T21:23:47.076Z,84.02
2023-04-02T21:26:17.232Z,84.19
2023-04-02T21:28:45.308Z,84.67
2023-04-02T21:31:18.671Z,84.64
2023-04-02T21:33:51.342Z,84.69
2023-04-02T21:36:19.663Z,84.48
2023-04-02T21:38:49.219Z,84.77
2023-04-02T21:41:22.747Z,84.99
2023-04-02T21:43:50.133Z,84.86
2023-04-02T21:46:19.674Z,85.00
2023-04-02T21:48:48.581Z,85.59
2023-04-02T21:51:18.694Z,85.70
2023-04-02T21:53:45.583Z,85.40
2023-04-02T21:56:16.029Z,85.33
2023-04-02T21:58:45.167Z,85.18
2023-04-02T22:01:23.880Z,85.28
2023-04-02T22:03:59.745Z,85.47
2023-04-02T22:06:29.091Z,85.65
2023-04-02T22:09:02.443Z,85.80
2023-04-02T22:11:38.710Z,85.87
2023-04-02T22:14:06.354Z,86.21
2023-04-02T22:16:34.983Z,86.56
2023-04-02T22:19:04.133Z,86.66
2023-04-02T22:21:32.203Z,86.80
2023-04-02T22:24:04.337Z,86.90
2023-04-02T22:26:32.635Z,86.80
2023-04-02T22:29:00.554Z,86.98
2023-04-02T22:31:30.483Z,87.02
2023-04-02T22:33:58.411Z,86.96
2023-04-02T22:36:26.565Z,87.18
2023-04-02T22:38:53.623Z,87.98
2023-04-02T22:41:25.493Z,88.31
2023-04-02T22:43:53.310Z,88.30
2023-04-02T22:46:21.111Z,88.13
2023-04-02T22:48:49.398Z,88.14
2023-04-02T22:51:19.413Z,87.93
2023-04-02T22:53:47.594Z,87.95
2023-04-02T22:56:17.873Z,88.67
2023-04-02T22:58:45.650Z,89.06
2023-04-02T23:01:25.220Z,89.28
2023-04-02T23:03:53.731Z,89.24
2023-04-02T23:06:20.879Z,89.22
2023-04-02T23:08:47.825Z,89.11
2023-04-02T23:11:21.412Z,89.13
2023-04-02T23:13:50.322Z,89.15
2023-04-02T23:16:17.699Z,89.08
2023-04-02T23:18:49.448Z,89.06
2023-04-02T23:21:17.659Z,89.33
2023-04-02T23:23:45.453Z,89.39
2023-04-02T23:26:32.430Z,89.38
2023-04-02T23:28:59.983Z,89.43
2023-04-02T23:31:27.906Z,90.54
2023-04-02T23:33:55.203Z,91.03
2023-04-02T23:36:33.319Z,90.92
2023-04-02T23:39:03.520Z,90.76
2023-04-02T23:41:31.138Z,90.94
2023-04-02T23:43:58.428Z,91.13
2023-04-02T23:46:25.976Z,91.19
2023-04-02T23:48:53.928Z,91.32
2023-04-02T23:51:22.114Z,91.39
2023-04-02T23:53:50.016Z,91.46
2023-04-02T23:56:17.743Z,91.48
2023-04-02T23:58:45.367Z,91.61
